sensor_id;sensor_type;location;lat;lon;timestamp;temperature;humidity
31046;DHT22;17711;54.018;9.300;2022-12-19T00:01:16;-2.40;99.90
31046;DHT22;17711;54.018;9.300;2022-12-19T00:03:46;-2.30;99.90
31046;DHT22;17711;54.018;9.300;2022-12-19T00:06:17;-2.30;99.90
31046;DHT22;17711;54.018;9.300;2022-12-19T00:08:49;-2.20;99.90
31046;DHT22;17711;54.018;9.300;2022-12-19T00:11:19;-2.20;99.90
31046;DHT22;17711;54.018;9.300;2022-12-19T00:13:49;-2.10;99.90
31046;DHT22;17711;54.018;9.300;2022-12-19T00:16:19;-2.10;99.90
31046;DHT22;17711;54.018;9.300;2022-12-19T00:18:49;-2.00;99.90
31046;DHT22;17711;54.018;9.300;2022-12-19T00:21:23;-2.00;99.90
31046;DHT22;17711;54.018;9.300;2022-12-19T00:23:53;-2.00;99.90
31046;DHT22;17711;54.018;9.300;2022-12-19T00:26:24;-1.90;99.90
31046;DHT22;17711;54.018;9.300;2022-12-19T00:28:54;-1.90;99.90
31046;DHT22;17711;54.018;9.300;2022-12-19T00:31:24;-1.90;99.90
31046;DHT22;17711;54.018;9.300;2022-12-19T00:33:53;-1.90;99.90
31046;DHT22;17711;54.018;9.300;2022-12-19T00:36:24;-1.90;99.90
31046;DHT22;17711;54.018;9.300;2022-12-19T00:38:56;-1.80;99.90
31046;DHT22;17711;54.018;9.300;2022-12-19T00:41:27;-1.80;99.90
31046;DHT22;17711;54.018;9.300;2022-12-19T00:43:57;-1.80;99.90
31046;DHT22;17711;54.018;9.300;2022-12-19T00:46:26;-1.80;99.90
31046;DHT22;17711;54.018;9.300;2022-12-19T00:48:55;-1.80;99.90
31046;DHT22;17711;54.018;9.300;2022-12-19T00:51:25;-1.80;99.90
31046;DHT22;17711;54.018;9.300;2022-12-19T00:53:56;-1.80;99.90
31046;DHT22;17711;54.018;9.300;2022-12-19T00:56:27;-1.70;99.90
31046;DHT22;17711;54.018;9.300;2022-12-19T00:58:56;-1.60;99.90
31046;DHT22;17711;54.018;9.300;2022-12-19T01:01:27;-1.60;99.90
31046;DHT22;17711;54.018;9.300;2022-12-19T01:03:57;-1.60;99.90
31046;DHT22;17711;54.018;9.300;2022-12-19T01:06:45;-1.50;99.90
31046;DHT22;17711;54.018;9.300;2022-12-19T01:09:16;-1.50;99.90
31046;DHT22;17711;54.018;9.300;2022-12-19T01:11:44;-1.50;99.90
31046;DHT22;17711;54.018;9.300;2022-12-19T01:14:30;-1.40;99.90
31046;DHT22;17711;54.018;9.300;2022-12-19T01:16:58;-1.50;99.90
31046;DHT22;17711;54.018;9.300;2022-12-19T01:19:27;-1.50;99.90
31046;DHT22;17711;54.018;9.300;2022-12-19T01:21:56;-1.50;99.90
31046;DHT22;17711;54.018;9.300;2022-12-19T01:24:26;-1.40;99.90
31046;DHT22;17711;54.018;9.300;2022-12-19T01:26:54;-1.40;99.90
31046;DHT22;17711;54.018;9.300;2022-12-19T01:29:23;-1.40;99.90
31046;DHT22;17711;54.018;9.300;2022-12-19T01:31:51;-1.40;99.90
31046;DHT22;17711;54.018;9.300;2022-12-19T01:34:20;-1.40;99.90
31046;DHT22;17711;54.018;9.300;2022-12-19T01:36:48;-1.40;99.90
31046;DHT22;17711;54.018;9.300;2022-12-19T01:39:17;-1.40;99.90
31046;DHT22;17711;54.018;9.300;2022-12-19T01:41:49;-1.30;99.90
31046;DHT22;17711;54.018;9.300;2022-12-19T01:44:17;-1.30;99.90
31046;DHT22;17711;54.018;9.300;2022-12-19T01:46:48;-1.30;99.90
31046;DHT22;17711;54.018;9.300;2022-12-19T01:49:20;-1.30;99.90
31046;DHT22;17711;54.018;9.300;2022-12-19T01:51:55;-1.20;99.90
31046;DHT22;17711;54.018;9.300;2022-12-19T01:54:25;-1.20;99.90
31046;DHT22;17711;54.018;9.300;2022-12-19T01:56:58;-1.20;99.90
31046;DHT22;17711;54.018;9.300;2022-12-19T01:59:30;-1.20;99.90
31046;DHT22;17711;54.018;9.300;2022-12-19T02:02:00;-1.20;99.90
31046;DHT22;17711;54.018;9.300;2022-12-19T02:04:31;-1.10;99.90
31046;DHT22;17711;54.018;9.300;2022-12-19T02:07:02;-1.10;99.90
31046;DHT22;17711;54.018;9.300;2022-12-19T02:09:43;-1.10;99.90
31046;DHT22;17711;54.018;9.300;2022-12-19T02:12:13;-1.10;99.90
31046;DHT22;17711;54.018;9.300;2022-12-19T02:14:42;-1.10;99.90
31046;DHT22;17711;54.018;9.300;2022-12-19T02:17:17;-1.20;99.90
31046;DHT22;17711;54.018;9.300;2022-12-19T02:20:11;-1.10;99.90
31046;DHT22;17711;54.018;9.300;2022-12-19T02:22:56;-1.10;99.90
31046;DHT22;17711;54.018;9.300;2022-12-19T02:25:47;-1.00;99.90
31046;DHT22;17711;54.018;9.300;2022-12-19T02:28:52;-1.00;99.90
31046;DHT22;17711;54.018;9.300;2022-12-19T02:31:30;-1.00;99.90
31046;DHT22;17711;54.018;9.300;2022-12-19T02:34:03;-1.00;99.90
31046;DHT22;17711;54.018;9.300;2022-12-19T02:36:42;-1.00;99.90
31046;DHT22;17711;54.018;9.300;2022-12-19T02:39:21;-0.90;99.90
31046;DHT22;17711;54.018;9.300;2022-12-19T02:41:55;-0.90;99.90
31046;DHT22;17711;54.018;9.300;2022-12-19T02:44:26;-0.90;99.90
31046;DHT22;17711;54.018;9.300;2022-12-19T02:46:59;-0.90;99.90
31046;DHT22;17711;54.018;9.300;2022-12-19T02:49:29;-0.90;99.90
31046;DHT22;17711;54.018;9.300;2022-12-19T02:52:08;-1.00;99.90
31046;DHT22;17711;54.018;9.300;2022-12-19T02:54:36;-1.00;99.90
31046;DHT22;17711;54.018;9.300;2022-12-19T02:57:17;-1.00;99.90
31046;DHT22;17711;54.018;9.300;2022-12-19T02:59:54;-0.90;99.90
31046;DHT22;17711;54.018;9.300;2022-12-19T03:02:35;-0.90;99.90
31046;DHT22;17711;54.018;9.300;2022-12-19T03:05:13;-0.90;99.90
31046;DHT22;17711;54.018;9.300;2022-12-19T03:07:49;-0.90;99.90
31046;DHT22;17711;54.018;9.300;2022-12-19T03:10:26;-0.90;99.90
31046;DHT22;17711;54.018;9.300;2022-12-19T03:13:01;-0.90;99.90
31046;DHT22;17711;54.018;9.300;2022-12-19T03:15:33;-0.80;99.90
31046;DHT22;17711;54.018;9.300;2022-12-19T03:18:03;-0.80;99.90
31046;DHT22;17711;54.018;9.300;2022-12-19T03:20:47;-0.80;99.90
31046;DHT22;17711;54.018;9.300;2022-12-19T03:23:17;-0.90;99.90
31046;DHT22;17711;54.018;9.300;2022-12-19T03:25:48;-0.80;99.90
31046;DHT22;17711;54.018;9.300;2022-12-19T03:28:22;-0.80;99.90
31046;DHT22;17711;54.018;9.300;2022-12-19T03:30:52;-0.80;99.90
31046;DHT22;17711;54.018;9.300;2022-12-19T03:33:23;-0.80;99.90
31046;DHT22;17711;54.018;9.300;2022-12-19T03:35:53;-0.70;99.90
31046;DHT22;17711;54.018;9.300;2022-12-19T03:38:24;-0.70;99.90
31046;DHT22;17711;54.018;9.300;2022-12-19T03:40:54;-0.80;99.90
31046;DHT22;17711;54.018;9.300;2022-12-19T03:43:24;-0.80;99.90
31046;DHT22;17711;54.018;9.300;2022-12-19T03:45:55;-0.80;99.90
31046;DHT22;17711;54.018;9.300;2022-12-19T03:48:29;-0.80;99.90
31046;DHT22;17711;54.018;9.300;2022-12-19T03:51:07;-0.70;99.90
31046;DHT22;17711;54.018;9.300;2022-12-19T03:53:44;-0.70;99.90
31046;DHT22;17711;54.018;9.300;2022-12-19T03:56:21;-0.70;99.90
31046;DHT22;17711;54.018;9.300;2022-12-19T03:58:58;-0.60;99.90
31046;DHT22;17711;54.018;9.300;2022-12-19T04:01:27;-0.60;99.90
31046;DHT22;17711;54.018;9.300;2022-12-19T04:03:58;-0.60;99.90
31046;DHT22;17711;54.018;9.300;2022-12-19T04:06:29;-0.50;99.90
31046;DHT22;17711;54.018;9.300;2022-12-19T04:08:59;-0.50;99.90
31046;DHT22;17711;54.018;9.300;2022-12-19T04:11:33;-0.50;99.90
31046;DHT22;17711;54.018;9.300;2022-12-19T04:14:06;-0.50;99.90
31046;DHT22;17711;54.018;9.300;2022-12-19T04:16:37;-0.50;99.90
31046;DHT22;17711;54.018;9.300;2022-12-19T04:19:17;-0.50;99.90
31046;DHT22;17711;54.018;9.300;2022-12-19T04:21:50;-0.50;99.90
31046;DHT22;17711;54.018;9.300;2022-12-19T04:24:23;-0.50;99.90
31046;DHT22;17711;54.018;9.300;2022-12-19T04:26:54;-0.50;99.90
31046;DHT22;17711;54.018;9.300;2022-12-19T04:29:26;-0.40;99.90
31046;DHT22;17711;54.018;9.300;2022-12-19T04:31:56;-0.40;99.90
31046;DHT22;17711;54.018;9.300;2022-12-19T04:34:26;-0.30;99.90
31046;DHT22;17711;54.018;9.300;2022-12-19T04:36:54;-0.30;99.90
31046;DHT22;17711;54.018;9.300;2022-12-19T04:39:24;-0.20;99.90
31046;DHT22;17711;54.018;9.300;2022-12-19T04:41:53;-0.20;99.90
31046;DHT22;17711;54.018;9.300;2022-12-19T04:44:21;-0.20;99.90
31046;DHT22;17711;54.018;9.300;2022-12-19T04:46:50;-0.20;99.90
31046;DHT22;17711;54.018;9.300;2022-12-19T04:49:18;-0.20;99.90
31046;DHT22;17711;54.018;9.300;2022-12-19T04:51:48;-0.20;99.90
31046;DHT22;17711;54.018;9.300;2022-12-19T04:54:17;-0.20;99.90
31046;DHT22;17711;54.018;9.300;2022-12-19T04:56:45;-0.20;99.90
31046;DHT22;17711;54.018;9.300;2022-12-19T04:59:14;-0.20;99.90
31046;DHT22;17711;54.018;9.300;2022-12-19T05:01:42;-0.20;99.90
31046;DHT22;17711;54.018;9.300;2022-12-19T05:04:11;-0.20;99.90
31046;DHT22;17711;54.018;9.300;2022-12-19T05:06:40;-0.10;99.90
31046;DHT22;17711;54.018;9.300;2022-12-19T05:09:10;-0.10;99.90
31046;DHT22;17711;54.018;9.300;2022-12-19T05:11:39;-0.10;99.90
31046;DHT22;17711;54.018;9.300;2022-12-19T05:14:08;-0.10;99.90
31046;DHT22;17711;54.018;9.300;2022-12-19T05:16:36;0.00;99.90
31046;DHT22;17711;54.018;9.300;2022-12-19T05:19:05;0.00;99.90
31046;DHT22;17711;54.018;9.300;2022-12-19T05:21:34;0.00;99.90
31046;DHT22;17711;54.018;9.300;2022-12-19T05:24:06;0.10;99.90
31046;DHT22;17711;54.018;9.300;2022-12-19T05:26:36;0.10;99.90
31046;DHT22;17711;54.018;9.300;2022-12-19T05:29:04;0.20;99.90
31046;DHT22;17711;54.018;9.300;2022-12-19T05:31:33;0.20;99.90
31046;DHT22;17711;54.018;9.300;2022-12-19T05:34:02;0.20;99.90
31046;DHT22;17711;54.018;9.300;2022-12-19T05:36:30;0.30;99.90
31046;DHT22;17711;54.018;9.300;2022-12-19T05:38:59;0.30;99.90
31046;DHT22;17711;54.018;9.300;2022-12-19T05:41:30;0.30;99.90
31046;DHT22;17711;54.018;9.300;2022-12-19T05:44:00;0.30;99.90
31046;DHT22;17711;54.018;9.300;2022-12-19T05:46:29;0.40;99.90
31046;DHT22;17711;54.018;9.300;2022-12-19T05:48:57;0.40;99.90
31046;DHT22;17711;54.018;9.300;2022-12-19T05:51:26;0.40;99.90
31046;DHT22;17711;54.018;9.300;2022-12-19T05:53:55;0.40;99.90
31046;DHT22;17711;54.018;9.300;2022-12-19T05:56:23;0.40;99.90
31046;DHT22;17711;54.018;9.300;2022-12-19T05:58:52;0.40;99.90
31046;DHT22;17711;54.018;9.300;2022-12-19T06:01:24;0.40;99.90
31046;DHT22;17711;54.018;9.300;2022-12-19T06:03:53;0.50;99.90
31046;DHT22;17711;54.018;9.300;2022-12-19T06:06:24;0.50;99.90
31046;DHT22;17711;54.018;9.300;2022-12-19T06:08:53;0.50;99.90
31046;DHT22;17711;54.018;9.300;2022-12-19T06:11:22;0.50;99.90
31046;DHT22;17711;54.018;9.300;2022-12-19T06:13:51;0.60;99.90
31046;DHT22;17711;54.018;9.300;2022-12-19T06:16:22;0.60;99.90
31046;DHT22;17711;54.018;9.300;2022-12-19T06:18:51;0.60;99.90
31046;DHT22;17711;54.018;9.300;2022-12-19T06:21:20;0.60;99.90
31046;DHT22;17711;54.018;9.300;2022-12-19T06:23:50;0.60;99.90
31046;DHT22;17711;54.018;9.300;2022-12-19T06:26:20;0.60;99.90
31046;DHT22;17711;54.018;9.300;2022-12-19T06:28:50;0.70;99.90
31046;DHT22;17711;54.018;9.300;2022-12-19T06:31:20;0.70;99.90
31046;DHT22;17711;54.018;9.300;2022-12-19T06:33:50;0.70;99.90
31046;DHT22;17711;54.018;9.300;2022-12-19T06:36:20;0.80;99.90
31046;DHT22;17711;54.018;9.300;2022-12-19T06:38:50;0.80;99.90
31046;DHT22;17711;54.018;9.300;2022-12-19T06:41:18;0.80;99.90
31046;DHT22;17711;54.018;9.300;2022-12-19T06:44:06;0.80;99.90
31046;DHT22;17711;54.018;9.300;2022-12-19T06:46:37;0.90;99.90
31046;DHT22;17711;54.018;9.300;2022-12-19T06:49:08;0.90;99.90
31046;DHT22;17711;54.018;9.300;2022-12-19T06:51:36;0.90;99.90
31046;DHT22;17711;54.018;9.300;2022-12-19T06:54:05;0.90;99.90
31046;DHT22;17711;54.018;9.300;2022-12-19T06:56:34;0.90;99.90
31046;DHT22;17711;54.018;9.300;2022-12-19T06:59:04;0.90;99.90
31046;DHT22;17711;54.018;9.300;2022-12-19T07:01:39;1.00;99.90
31046;DHT22;17711;54.018;9.300;2022-12-19T07:04:16;1.00;99.90
31046;DHT22;17711;54.018;9.300;2022-12-19T07:06:47;1.00;99.90
31046;DHT22;17711;54.018;9.300;2022-12-19T07:09:15;1.00;99.90
31046;DHT22;17711;54.018;9.300;2022-12-19T07:11:44;1.00;99.90
31046;DHT22;17711;54.018;9.300;2022-12-19T07:14:13;1.00;99.90
31046;DHT22;17711;54.018;9.300;2022-12-19T07:16:41;1.10;99.90
31046;DHT22;17711;54.018;9.300;2022-12-19T07:19:10;1.00;99.90
31046;DHT22;17711;54.018;9.300;2022-12-19T07:21:41;1.10;99.90
31046;DHT22;17711;54.018;9.300;2022-12-19T07:24:10;1.10;99.90
31046;DHT22;17711;54.018;9.300;2022-12-19T07:26:39;1.20;99.90
31046;DHT22;17711;54.018;9.300;2022-12-19T07:29:08;1.20;99.90
31046;DHT22;17711;54.018;9.300;2022-12-19T07:31:37;1.20;99.90
31046;DHT22;17711;54.018;9.300;2022-12-19T07:34:06;1.20;99.90
31046;DHT22;17711;54.018;9.300;2022-12-19T07:36:36;1.20;99.90
31046;DHT22;17711;54.018;9.300;2022-12-19T07:39:06;1.20;99.90
31046;DHT22;17711;54.018;9.300;2022-12-19T07:41:35;1.30;99.90
31046;DHT22;17711;54.018;9.300;2022-12-19T07:44:04;1.20;99.90
31046;DHT22;17711;54.018;9.300;2022-12-19T07:46:33;1.20;99.90
31046;DHT22;17711;54.018;9.300;2022-12-19T07:49:05;1.30;99.90
31046;DHT22;17711;54.018;9.300;2022-12-19T07:51:33;1.30;99.90
31046;DHT22;17711;54.018;9.300;2022-12-19T07:54:02;1.30;99.90
31046;DHT22;17711;54.018;9.300;2022-12-19T07:56:32;1.40;99.90
31046;DHT22;17711;54.018;9.300;2022-12-19T07:59:01;1.40;99.90
31046;DHT22;17711;54.018;9.300;2022-12-19T08:01:29;1.40;99.90
31046;DHT22;17711;54.018;9.300;2022-12-19T08:03:58;1.40;99.90
31046;DHT22;17711;54.018;9.300;2022-12-19T08:06:26;1.40;99.90
31046;DHT22;17711;54.018;9.300;2022-12-19T08:08:55;1.40;99.90
31046;DHT22;17711;54.018;9.300;2022-12-19T08:11:24;1.40;99.90
31046;DHT22;17711;54.018;9.300;2022-12-19T08:13:57;1.40;99.90
31046;DHT22;17711;54.018;9.300;2022-12-19T08:16:26;1.50;99.90
31046;DHT22;17711;54.018;9.300;2022-12-19T08:18:55;1.50;99.90
31046;DHT22;17711;54.018;9.300;2022-12-19T08:21:24;1.50;99.90
31046;DHT22;17711;54.018;9.300;2022-12-19T08:23:52;1.40;99.90
31046;DHT22;17711;54.018;9.300;2022-12-19T08:26:22;1.50;99.90
31046;DHT22;17711;54.018;9.300;2022-12-19T08:28:52;1.50;99.90
31046;DHT22;17711;54.018;9.300;2022-12-19T08:31:24;1.50;99.90
31046;DHT22;17711;54.018;9.300;2022-12-19T08:33:55;1.50;99.90
31046;DHT22;17711;54.018;9.300;2022-12-19T08:36:24;1.60;99.90
31046;DHT22;17711;54.018;9.300;2022-12-19T08:38:53;1.60;99.90
31046;DHT22;17711;54.018;9.300;2022-12-19T08:41:22;1.60;99.90
31046;DHT22;17711;54.018;9.300;2022-12-19T08:43:52;1.60;99.90
31046;DHT22;17711;54.018;9.300;2022-12-19T08:46:23;1.60;99.90
31046;DHT22;17711;54.018;9.300;2022-12-19T08:48:52;1.60;99.90
31046;DHT22;17711;54.018;9.300;2022-12-19T08:51:20;1.60;99.90
31046;DHT22;17711;54.018;9.300;2022-12-19T08:53:49;1.70;99.90
31046;DHT22;17711;54.018;9.300;2022-12-19T08:56:20;1.60;99.90
31046;DHT22;17711;54.018;9.300;2022-12-19T08:58:50;1.60;99.90
31046;DHT22;17711;54.018;9.300;2022-12-19T09:01:19;1.70;99.90
31046;DHT22;17711;54.018;9.300;2022-12-19T09:03:51;1.70;99.90
31046;DHT22;17711;54.018;9.300;2022-12-19T09:06:40;1.70;99.90
31046;DHT22;17711;54.018;9.300;2022-12-19T09:09:08;1.70;99.90
31046;DHT22;17711;54.018;9.300;2022-12-19T09:11:37;1.70;99.90
31046;DHT22;17711;54.018;9.300;2022-12-19T09:14:14;1.80;99.90
31046;DHT22;17711;54.018;9.300;2022-12-19T09:16:47;1.80;99.90
31046;DHT22;17711;54.018;9.300;2022-12-19T09:19:17;1.80;99.90
31046;DHT22;17711;54.018;9.300;2022-12-19T09:21:46;1.80;99.90
31046;DHT22;17711;54.018;9.300;2022-12-19T09:24:14;1.80;99.90
31046;DHT22;17711;54.018;9.300;2022-12-19T09:26:42;1.80;99.90
31046;DHT22;17711;54.018;9.300;2022-12-19T09:29:12;1.80;99.90
31046;DHT22;17711;54.018;9.300;2022-12-19T09:31:48;1.80;99.90
31046;DHT22;17711;54.018;9.300;2022-12-19T09:34:25;1.90;99.90
31046;DHT22;17711;54.018;9.300;2022-12-19T09:37:05;1.90;99.90
31046;DHT22;17711;54.018;9.300;2022-12-19T09:39:33;1.90;99.90
31046;DHT22;17711;54.018;9.300;2022-12-19T09:42:15;1.80;99.90
31046;DHT22;17711;54.018;9.300;2022-12-19T09:47:58;1.90;99.90
31046;DHT22;17711;54.018;9.300;2022-12-19T09:50:42;2.00;99.90
31046;DHT22;17711;54.018;9.300;2022-12-19T09:53:18;2.00;99.90
31046;DHT22;17711;54.018;9.300;2022-12-19T09:55:51;2.00;99.90
31046;DHT22;17711;54.018;9.300;2022-12-19T09:58:30;2.00;99.90
31046;DHT22;17711;54.018;9.300;2022-12-19T10:01:05;2.10;99.90
31046;DHT22;17711;54.018;9.300;2022-12-19T10:03:37;2.10;99.90
31046;DHT22;17711;54.018;9.300;2022-12-19T10:06:14;2.20;99.90
31046;DHT22;17711;54.018;9.300;2022-12-19T10:09:10;2.10;99.90
31046;DHT22;17711;54.018;9.300;2022-12-19T10:12:18;2.10;99.90
31046;DHT22;17711;54.018;9.300;2022-12-19T10:15:15;2.20;99.90
31046;DHT22;17711;54.018;9.300;2022-12-19T10:18:00;2.30;99.90
31046;DHT22;17711;54.018;9.300;2022-12-19T10:20:35;2.30;99.90
31046;DHT22;17711;54.018;9.300;2022-12-19T10:23:25;2.30;99.90
31046;DHT22;17711;54.018;9.300;2022-12-19T10:26:05;2.40;99.90
31046;DHT22;17711;54.018;9.300;2022-12-19T10:28:52;2.40;99.90
31046;DHT22;17711;54.018;9.300;2022-12-19T10:31:27;2.40;99.90
31046;DHT22;17711;54.018;9.300;2022-12-19T10:34:01;2.40;99.90
31046;DHT22;17711;54.018;9.300;2022-12-19T10:36:45;2.50;99.90
31046;DHT22;17711;54.018;9.300;2022-12-19T10:40:04;2.60;99.90
31046;DHT22;17711;54.018;9.300;2022-12-19T10:42:56;2.60;99.90
31046;DHT22;17711;54.018;9.300;2022-12-19T10:45:41;2.70;99.90
31046;DHT22;17711;54.018;9.300;2022-12-19T10:48:16;2.70;99.90
31046;DHT22;17711;54.018;9.300;2022-12-19T10:50:53;2.70;99.90
31046;DHT22;17711;54.018;9.300;2022-12-19T10:53:26;2.70;99.90
31046;DHT22;17711;54.018;9.300;2022-12-19T10:55:59;2.70;99.90
31046;DHT22;17711;54.018;9.300;2022-12-19T10:58:33;2.70;99.90
31046;DHT22;17711;54.018;9.300;2022-12-19T11:01:20;2.80;99.90
31046;DHT22;17711;54.018;9.300;2022-12-19T11:06:48;2.80;99.90
31046;DHT22;17711;54.018;9.300;2022-12-19T11:09:23;2.90;99.90
31046;DHT22;17711;54.018;9.300;2022-12-19T11:12:00;3.00;99.90
31046;DHT22;17711;54.018;9.300;2022-12-19T11:14:51;3.00;99.90
31046;DHT22;17711;54.018;9.300;2022-12-19T11:17:40;3.00;99.90
31046;DHT22;17711;54.018;9.300;2022-12-19T11:20:28;3.10;99.90
31046;DHT22;17711;54.018;9.300;2022-12-19T11:23:17;3.20;99.90
31046;DHT22;17711;54.018;9.300;2022-12-19T11:26:06;3.20;99.90
31046;DHT22;17711;54.018;9.300;2022-12-19T11:29:02;3.20;99.90
31046;DHT22;17711;54.018;9.300;2022-12-19T11:31:57;3.30;99.90
31046;DHT22;17711;54.018;9.300;2022-12-19T11:34:48;3.30;99.90
31046;DHT22;17711;54.018;9.300;2022-12-19T11:37:20;3.30;99.90
31046;DHT22;17711;54.018;9.300;2022-12-19T11:39:56;3.40;99.90
31046;DHT22;17711;54.018;9.300;2022-12-19T11:42:29;3.30;99.90
31046;DHT22;17711;54.018;9.300;2022-12-19T11:45:08;3.20;99.90
31046;DHT22;17711;54.018;9.300;2022-12-19T11:47:40;3.20;99.90
31046;DHT22;17711;54.018;9.300;2022-12-19T11:50:12;3.20;99.90
31046;DHT22;17711;54.018;9.300;2022-12-19T11:52:48;3.20;99.90
31046;DHT22;17711;54.018;9.300;2022-12-19T11:55:38;3.30;99.90
31046;DHT22;17711;54.018;9.300;2022-12-19T11:58:09;3.20;99.90
31046;DHT22;17711;54.018;9.300;2022-12-19T12:00:47;3.20;99.90
31046;DHT22;17711;54.018;9.300;2022-12-19T12:03:36;3.30;99.90
31046;DHT22;17711;54.018;9.300;2022-12-19T12:06:32;3.30;99.90
31046;DHT22;17711;54.018;9.300;2022-12-19T12:09:12;3.30;99.90
31046;DHT22;17711;54.018;9.300;2022-12-19T12:12:12;3.40;99.90
31046;DHT22;17711;54.018;9.300;2022-12-19T12:15:22;3.40;99.90
31046;DHT22;17711;54.018;9.300;2022-12-19T12:18:25;3.40;99.90
31046;DHT22;17711;54.018;9.300;2022-12-19T12:21:21;3.40;99.90
31046;DHT22;17711;54.018;9.300;2022-12-19T12:24:15;3.40;99.90
31046;DHT22;17711;54.018;9.300;2022-12-19T12:27:20;3.40;99.90
31046;DHT22;17711;54.018;9.300;2022-12-19T12:30:15;3.40;99.90
31046;DHT22;17711;54.018;9.300;2022-12-19T12:33:12;3.50;99.90
31046;DHT22;17711;54.018;9.300;2022-12-19T12:36:13;3.40;99.90
31046;DHT22;17711;54.018;9.300;2022-12-19T12:39:10;3.40;99.90
31046;DHT22;17711;54.018;9.300;2022-12-19T12:42:00;3.40;99.90
31046;DHT22;17711;54.018;9.300;2022-12-19T12:44:34;3.50;99.90
31046;DHT22;17711;54.018;9.300;2022-12-19T12:47:16;3.40;99.90
31046;DHT22;17711;54.018;9.300;2022-12-19T12:49:49;3.40;99.90
31046;DHT22;17711;54.018;9.300;2022-12-19T12:52:27;3.50;99.90
31046;DHT22;17711;54.018;9.300;2022-12-19T12:54:57;3.50;99.90
31046;DHT22;17711;54.018;9.300;2022-12-19T12:57:34;3.50;99.90
31046;DHT22;17711;54.018;9.300;2022-12-19T13:00:15;3.40;99.90
31046;DHT22;17711;54.018;9.300;2022-12-19T13:02:47;3.40;99.90
31046;DHT22;17711;54.018;9.300;2022-12-19T13:05:39;3.50;99.90
31046;DHT22;17711;54.018;9.300;2022-12-19T13:08:33;3.50;99.90
31046;DHT22;17711;54.018;9.300;2022-12-19T13:11:04;3.60;99.90
31046;DHT22;17711;54.018;9.300;2022-12-19T13:13:54;3.50;99.90
31046;DHT22;17711;54.018;9.300;2022-12-19T13:16:48;3.50;99.90
31046;DHT22;17711;54.018;9.300;2022-12-19T13:19:22;3.50;99.90
31046;DHT22;17711;54.018;9.300;2022-12-19T13:22:19;3.50;99.90
31046;DHT22;17711;54.018;9.300;2022-12-19T13:24:49;3.50;99.90
31046;DHT22;17711;54.018;9.300;2022-12-19T13:27:45;3.40;99.90
31046;DHT22;17711;54.018;9.300;2022-12-19T13:30:17;3.40;99.90
31046;DHT22;17711;54.018;9.300;2022-12-19T13:33:07;3.40;99.90
31046;DHT22;17711;54.018;9.300;2022-12-19T13:35:37;3.40;99.90
31046;DHT22;17711;54.018;9.300;2022-12-19T13:38:26;3.40;99.90
31046;DHT22;17711;54.018;9.300;2022-12-19T13:41:27;3.40;99.90
31046;DHT22;17711;54.018;9.300;2022-12-19T13:44:17;3.40;99.90
31046;DHT22;17711;54.018;9.300;2022-12-19T13:46:47;3.40;99.90
31046;DHT22;17711;54.018;9.300;2022-12-19T13:49:20;3.40;99.90
31046;DHT22;17711;54.018;9.300;2022-12-19T13:51:57;3.30;99.90
31046;DHT22;17711;54.018;9.300;2022-12-19T13:54:27;3.30;99.90
31046;DHT22;17711;54.018;9.300;2022-12-19T13:57:00;3.40;99.90
31046;DHT22;17711;54.018;9.300;2022-12-19T13:59:37;3.40;99.90
31046;DHT22;17711;54.018;9.300;2022-12-19T14:02:30;3.40;99.90
31046;DHT22;17711;54.018;9.300;2022-12-19T14:05:22;3.40;99.90
31046;DHT22;17711;54.018;9.300;2022-12-19T14:08:15;3.40;99.90
31046;DHT22;17711;54.018;9.300;2022-12-19T14:10:47;3.30;99.90
31046;DHT22;17711;54.018;9.300;2022-12-19T14:13:45;3.30;99.90
31046;DHT22;17711;54.018;9.300;2022-12-19T14:16:45;3.30;99.90
31046;DHT22;17711;54.018;9.300;2022-12-19T14:19:19;3.30;99.90
31046;DHT22;17711;54.018;9.300;2022-12-19T14:21:48;3.30;99.90
31046;DHT22;17711;54.018;9.300;2022-12-19T14:24:37;3.30;99.90
31046;DHT22;17711;54.018;9.300;2022-12-19T14:27:10;3.40;99.90
31046;DHT22;17711;54.018;9.300;2022-12-19T14:30:04;3.30;99.90
31046;DHT22;17711;54.018;9.300;2022-12-19T14:32:54;3.40;99.90
31046;DHT22;17711;54.018;9.300;2022-12-19T14:35:45;3.30;99.90
31046;DHT22;17711;54.018;9.300;2022-12-19T14:38:35;3.30;99.90
31046;DHT22;17711;54.018;9.300;2022-12-19T14:41:36;3.30;99.90
31046;DHT22;17711;54.018;9.300;2022-12-19T14:44:46;3.30;99.90
31046;DHT22;17711;54.018;9.300;2022-12-19T14:47:37;3.30;99.90
31046;DHT22;17711;54.018;9.300;2022-12-19T14:50:30;3.30;99.90
31046;DHT22;17711;54.018;9.300;2022-12-19T14:53:20;3.30;99.90
31046;DHT22;17711;54.018;9.300;2022-12-19T14:56:11;3.40;99.90
31046;DHT22;17711;54.018;9.300;2022-12-19T14:59:00;3.50;99.90
31046;DHT22;17711;54.018;9.300;2022-12-19T15:01:31;3.60;99.90
31046;DHT22;17711;54.018;9.300;2022-12-19T15:04:04;3.50;99.90
31046;DHT22;17711;54.018;9.300;2022-12-19T15:06:58;3.60;99.90
31046;DHT22;17711;54.018;9.300;2022-12-19T15:09:52;3.50;99.90
31046;DHT22;17711;54.018;9.300;2022-12-19T15:12:48;3.50;99.90
31046;DHT22;17711;54.018;9.300;2022-12-19T15:15:57;3.50;99.90
31046;DHT22;17711;54.018;9.300;2022-12-19T15:18:36;3.60;99.90
31046;DHT22;17711;54.018;9.300;2022-12-19T15:21:10;3.70;99.90
31046;DHT22;17711;54.018;9.300;2022-12-19T15:23:40;3.70;99.90
31046;DHT22;17711;54.018;9.300;2022-12-19T15:26:13;3.70;99.90
31046;DHT22;17711;54.018;9.300;2022-12-19T15:28:45;3.70;99.90
31046;DHT22;17711;54.018;9.300;2022-12-19T15:31:27;3.70;99.90
31046;DHT22;17711;54.018;9.300;2022-12-19T15:33:58;3.60;99.90
31046;DHT22;17711;54.018;9.300;2022-12-19T15:36:49;3.60;99.90
31046;DHT22;17711;54.018;9.300;2022-12-19T15:39:20;3.50;99.90
31046;DHT22;17711;54.018;9.300;2022-12-19T15:41:50;3.50;99.90
31046;DHT22;17711;54.018;9.300;2022-12-19T15:44:25;3.50;99.90
31046;DHT22;17711;54.018;9.300;2022-12-19T15:46:57;3.50;99.90
31046;DHT22;17711;54.018;9.300;2022-12-19T15:49:26;3.50;99.90
31046;DHT22;17711;54.018;9.300;2022-12-19T15:51:57;3.50;99.90
31046;DHT22;17711;54.018;9.300;2022-12-19T15:54:26;3.50;99.90
31046;DHT22;17711;54.018;9.300;2022-12-19T15:57:20;3.60;99.90
31046;DHT22;17711;54.018;9.300;2022-12-19T15:59:51;3.70;99.90
31046;DHT22;17711;54.018;9.300;2022-12-19T16:02:23;3.70;99.90
31046;DHT22;17711;54.018;9.300;2022-12-19T16:05:13;3.80;99.90
31046;DHT22;17711;54.018;9.300;2022-12-19T16:07:44;3.80;99.90
31046;DHT22;17711;54.018;9.300;2022-12-19T16:10:14;3.80;99.90
31046;DHT22;17711;54.018;9.300;2022-12-19T16:12:47;3.90;99.90
31046;DHT22;17711;54.018;9.300;2022-12-19T16:15:21;3.90;99.90
31046;DHT22;17711;54.018;9.300;2022-12-19T16:17:52;3.90;99.90
31046;DHT22;17711;54.018;9.300;2022-12-19T16:20:24;4.00;99.90
31046;DHT22;17711;54.018;9.300;2022-12-19T16:22:58;4.00;99.90
31046;DHT22;17711;54.018;9.300;2022-12-19T16:25:34;3.90;99.90
31046;DHT22;17711;54.018;9.300;2022-12-19T16:28:06;4.00;99.90
31046;DHT22;17711;54.018;9.300;2022-12-19T16:30:37;4.00;99.90
31046;DHT22;17711;54.018;9.300;2022-12-19T16:33:18;3.90;99.90
31046;DHT22;17711;54.018;9.300;2022-12-19T16:35:48;3.90;99.90
31046;DHT22;17711;54.018;9.300;2022-12-19T16:38:35;3.90;99.90
31046;DHT22;17711;54.018;9.300;2022-12-19T16:41:04;3.90;99.90